Time;durP1;ratioP1;P1;durP2;ratioP2;P2;SDS_P1;SDS_P2;PMS_P1;PMS_P2;Temp;Humidity;BMP_temperature;BMP_pressure;BME280_temperature;BME280_humidity;BME280_pressure;Samples;Min_cycle;Max_cycle;Signal;HPM_P1;HPM_P2
2023/01/20 00:00:00;;;;;;;58.75;53.63;;;;;;;6.51;100.00;100288.47;5043968;28;20068;-80
2023/01/20 00:02:28;;;;;;;58.92;53.83;;;;;;;6.46;100.00;100278.47;5049476;28;20076;-79
2023/01/20 00:04:54;;;;;;;52.80;48.33;;;;;;;6.74;100.00;100267.94;5047734;28;20099;-82
2023/01/20 00:07:21;;;;;;;56.28;51.50;;;;;;;6.87;100.00;100259.31;5037802;28;20046;-82
2023/01/20 00:09:48;;;;;;;53.10;48.03;;;;;;;6.62;100.00;100266.81;5043882;28;20055;-82
2023/01/20 00:12:15;;;;;;;74.28;58.38;;;;;;;6.56;100.00;100267.56;5039618;28;20088;-82
2023/01/20 00:14:42;;;;;;;210.80;100.55;;;;;;;6.61;100.00;100283.66;5042035;28;20044;-82
2023/01/20 00:17:08;;;;;;;54.05;49.50;;;;;;;6.24;100.00;100282.13;5042813;28;20049;-82
2023/01/20 00:19:37;;;;;;;51.75;47.28;;;;;;;6.29;100.00;100291.06;5050893;28;20049;-82
2023/01/20 00:22:03;;;;;;;49.95;45.17;;;;;;;6.50;100.00;100284.97;5028825;28;20453;-82
2023/01/20 00:24:30;;;;;;;55.78;50.28;;;;;;;6.70;100.00;100282.53;5045666;28;20049;-80
2023/01/20 00:26:57;;;;;;;58.78;52.85;;;;;;;6.65;100.00;100284.91;5047742;28;20107;-79
2023/01/20 00:29:23;;;;;;;54.45;48.55;;;;;;;6.18;100.00;100275.78;5044543;28;20041;-80
2023/01/20 00:31:50;;;;;;;58.22;52.55;;;;;;;6.37;100.00;100263.78;5050881;28;20036;-80
2023/01/20 00:34:17;;;;;;;60.67;53.75;;;;;;;6.41;100.00;100265.00;5045754;28;20083;-79
2023/01/20 00:36:45;;;;;;;55.20;49.38;;;;;;;6.62;100.00;100259.72;5048641;28;20400;-79
2023/01/20 00:39:14;;;;;;;56.00;50.15;;;;;;;6.65;100.00;100259.31;5044770;28;20045;-80
2023/01/20 00:41:41;;;;;;;52.75;47.75;;;;;;;6.42;100.00;100261.38;5043635;28;20045;-82
2023/01/20 00:44:08;;;;;;;80.63;56.75;;;;;;;6.40;100.00;100268.66;5044160;28;20045;-82
2023/01/20 00:46:34;;;;;;;85.93;60.75;;;;;;;6.51;100.00;100248.88;5039652;28;20114;-82
2023/01/20 00:49:01;;;;;;;67.15;55.72;;;;;;;6.48;100.00;100250.06;5040167;28;20041;-82
2023/01/20 00:51:28;;;;;;;66.38;52.83;;;;;;;6.32;100.00;100247.69;5044875;28;20057;-82
2023/01/20 00:53:56;;;;;;;89.13;66.47;;;;;;;6.22;100.00;100231.38;5036419;28;20498;-82
2023/01/20 00:56:23;;;;;;;85.47;61.03;;;;;;;6.28;100.00;100246.44;5043045;28;20092;-82
2023/01/20 00:58:50;;;;;;;74.40;55.03;;;;;;;6.22;100.00;100241.91;5039833;28;20046;-79
2023/01/20 01:01:17;;;;;;;85.57;60.47;;;;;;;6.36;100.00;100239.22;5051174;28;20080;-79
2023/01/20 01:03:44;;;;;;;84.53;62.85;;;;;;;6.18;100.00;100233.56;5046043;28;20049;-79
2023/01/20 01:06:13;;;;;;;90.45;65.07;;;;;;;6.07;100.00;100248.06;5040672;28;20053;-82
2023/01/20 01:08:40;;;;;;;92.97;65.68;;;;;;;6.19;100.00;100236.00;5033073;28;20079;-82
2023/01/20 01:11:08;;;;;;;95.43;62.50;;;;;;;6.21;100.00;100230.56;5041956;28;20061;-82
2023/01/20 01:13:36;;;;;;;95.82;62.95;;;;;;;5.93;100.00;100228.69;5029710;28;20050;-79
2023/01/20 01:16:02;;;;;;;85.13;60.95;;;;;;;5.94;100.00;100232.94;5053903;28;20049;-80
2023/01/20 01:18:29;;;;;;;76.32;58.33;;;;;;;6.04;100.00;100237.09;5053508;28;20072;-79
2023/01/20 01:20:56;;;;;;;90.10;61.88;;;;;;;6.14;100.00;100233.16;5058320;28;20053;-79
2023/01/20 01:23:23;;;;;;;89.32;56.97;;;;;;;5.92;100.00;100221.72;5048226;28;20470;-80
2023/01/20 01:25:50;;;;;;;89.20;60.13;;;;;;;6.05;100.00;100212.34;5043715;28;20141;-80
2023/01/20 01:28:18;;;;;;;92.85;59.78;;;;;;;6.05;100.00;100236.06;5045484;28;20103;-81
2023/01/20 01:30:44;;;;;;;91.15;63.10;;;;;;;5.82;100.00;100231.75;5044375;28;20501;-82
2023/01/20 01:33:11;;;;;;;81.82;61.38;;;;;;;6.05;100.00;100212.34;5042171;28;20076;-82
2023/01/20 01:35:38;;;;;;;67.65;51.65;;;;;;;5.74;100.00;100210.78;5040871;28;20076;-82
2023/01/20 01:38:05;;;;;;;64.45;53.15;;;;;;;5.72;100.00;100218.88;5032388;28;20045;-80
2023/01/20 01:40:33;;;;;;;72.38;57.15;;;;;;;5.70;100.00;100220.06;5036843;28;20042;-82
2023/01/20 01:42:59;;;;;;;64.00;56.83;;;;;;;5.88;100.00;100214.38;5047034;28;20073;-82
2023/01/20 01:45:29;;;;;;;55.85;50.40;;;;;;;5.71;100.00;100216.44;5037048;28;20073;-83
2023/01/20 01:48:02;;;;;;;55.78;50.20;;;;;;;5.96;100.00;100207.22;5040003;28;20470;-82
2023/01/20 01:50:36;;;;;;;56.63;50.60;;;;;;;5.93;100.00;100217.28;5033755;28;20073;-81
2023/01/20 01:53:03;;;;;;;79.00;58.88;;;;;;;5.97;100.00;100219.38;5042284;28;20046;-82
2023/01/20 01:55:34;;;;;;;63.75;50.92;;;;;;;5.80;100.00;100219.78;5042139;28;20115;-82
2023/01/20 01:58:04;;;;;;;71.63;55.90;;;;;;;5.83;100.00;100212.31;5038496;28;20103;-82
2023/01/20 02:00:32;;;;;;;55.30;49.95;;;;;;;5.69;100.00;100202.66;5041825;28;20041;-82
2023/01/20 02:02:59;;;;;;;58.28;50.63;;;;;;;5.92;100.00;100194.56;5041036;28;20084;-82
2023/01/20 02:05:28;;;;;;;75.40;59.38;;;;;;;5.88;100.00;100190.66;5034054;28;20049;-82
2023/01/20 02:07:57;;;;;;;60.65;54.13;;;;;;;5.89;100.00;100177.28;5034365;28;20541;-82
2023/01/20 02:10:24;;;;;;;52.85;48.15;;;;;;;5.60;100.00;100167.69;5040997;28;20108;-82
2023/01/20 02:12:51;;;;;;;50.00;45.58;;;;;;;5.50;100.00;100167.16;5043563;28;20053;-82
2023/01/20 02:15:21;;;;;;;45.80;41.97;;;;;;;5.13;100.00;100160.25;5046815;28;20099;-82
2023/01/20 02:18:03;;;;;;;47.25;43.72;;;;;;;5.41;100.00;100155.09;5049307;28;20075;-82
2023/01/20 02:20:46;;;;;;;46.00;42.08;;;;;;;5.93;100.00;100154.88;5039251;28;20067;-82
2023/01/20 02:23:25;;;;;;;46.17;42.45;;;;;;;6.05;100.00;100170.16;5034337;28;20072;-82
2023/01/20 02:26:22;;;;;;;44.22;40.38;;;;;;;6.25;100.00;100151.88;5038110;28;20114;-79
2023/01/20 02:29:16;;;;;;;44.00;40.80;;;;;;;6.67;100.00;100161.50;5036609;28;20045;-82
2023/01/20 02:32:12;;;;;;;50.13;46.28;;;;;;;6.90;100.00;100155.97;5037320;28;20091;-82
2023/01/20 02:34:44;;;;;;;45.95;42.22;;;;;;;6.78;100.00;100158.34;5042039;28;20091;-82
2023/01/20 02:37:14;;;;;;;48.37;44.50;;;;;;;6.51;100.00;100162.63;5044457;28;20463;-82
2023/01/20 02:39:49;;;;;;;45.53;42.13;;;;;;;6.21;100.00;100153.28;5034677;28;20345;-82
2023/01/20 02:42:22;;;;;;;49.22;45.17;;;;;;;6.18;100.00;100152.63;5039659;28;20076;-79
2023/01/20 02:44:59;;;;;;;56.45;51.65;;;;;;;5.95;100.00;100144.13;5041694;28;20076;-81
2023/01/20 02:47:33;;;;;;;52.60;47.85;;;;;;;5.93;100.00;100146.13;5035839;28;20049;-82
2023/01/20 02:50:07;;;;;;;53.40;48.55;;;;;;;5.77;100.00;100139.25;5032480;28;20123;-82
2023/01/20 02:52:38;;;;;;;54.35;49.78;;;;;;;5.74;100.00;100137.00;5034641;28;20052;-82
2023/01/20 02:55:08;;;;;;;51.88;47.40;;;;;;;5.57;100.00;100132.97;5033914;28;20518;-82
2023/01/20 02:57:53;;;;;;;48.28;43.92;;;;;;;5.40;100.00;100129.78;5010418;28;20064;-82
2023/01/20 03:00:25;;;;;;;50.40;46.25;;;;;;;5.61;100.00;100132.44;5042197;28;20046;-82
2023/01/20 03:02:57;;;;;;;48.42;44.17;;;;;;;5.70;100.00;100130.50;5044685;28;20076;-82
2023/01/20 03:05:29;;;;;;;50.92;46.42;;;;;;;5.92;100.00;100141.81;5037367;28;20109;-82
2023/01/20 03:07:58;;;;;;;48.90;45.07;;;;;;;5.69;100.00;100144.69;5035691;28;20474;-82
2023/01/20 03:10:27;;;;;;;48.30;43.85;;;;;;;5.73;100.00;100145.91;5038841;28;20316;-80
2023/01/20 03:12:57;;;;;;;53.58;48.95;;;;;;;5.94;100.00;100140.66;5043040;28;20049;-82
2023/01/20 03:15:32;;;;;;;53.15;48.95;;;;;;;6.09;100.00;100137.16;5043342;28;20071;-82
2023/01/20 03:18:00;;;;;;;55.97;50.90;;;;;;;6.04;100.00;100142.16;5045608;28;20069;-82
2023/01/20 03:20:27;;;;;;;55.67;51.05;;;;;;;5.61;100.00;100139.53;5036416;28;20068;-82
2023/01/20 03:22:54;;;;;;;50.80;46.15;;;;;;;5.81;100.00;100142.31;5034235;28;20073;-82
2023/01/20 03:25:20;;;;;;;51.92;47.38;;;;;;;5.62;100.00;100155.13;5042938;28;20049;-80
2023/01/20 03:27:47;;;;;;;51.92;47.33;;;;;;;5.57;100.00;100148.78;5045387;28;20071;-79
2023/01/20 03:30:15;;;;;;;54.28;49.45;;;;;;;5.56;100.00;100147.16;5047018;28;20045;-82
2023/01/20 03:32:45;;;;;;;54.88;49.35;;;;;;;5.49;100.00;100152.34;5043288;28;20110;-80
2023/01/20 03:35:14;;;;;;;58.00;51.78;;;;;;;5.43;100.00;100161.00;5043409;28;20049;-82
2023/01/20 03:37:41;;;;;;;62.72;55.95;;;;;;;5.32;100.00;100145.69;5036102;28;20422;-82
2023/01/20 03:40:12;;;;;;;67.68;60.47;;;;;;;5.43;100.00;100158.38;5027838;28;20050;-82
2023/01/20 03:42:46;;;;;;;65.57;56.35;;;;;;;5.18;100.00;100148.16;5048667;28;20049;-79
2023/01/20 03:45:19;;;;;;;60.42;53.83;;;;;;;5.34;100.00;100133.97;5036551;28;20049;-82
2023/01/20 03:47:51;;;;;;;;;;;;;;;5.32;100.00;100135.16;5033621;28;20067;-82
2023/01/20 03:50:31;;;;;;;53.10;47.83;;;;;;;5.26;100.00;100127.00;5046298;28;19975;-79
2023/01/20 03:53:04;;;;;;;53.25;45.63;;;;;;;5.41;100.00;100119.03;5035023;28;20470;-81
2023/01/20 03:55:35;;;;;;;48.65;43.70;;;;;;;5.07;100.00;100124.13;5044890;28;20080;-82
2023/01/20 03:58:07;;;;;;;49.87;44.63;;;;;;;5.15;100.00;100137.19;5036032;28;20049;-82
2023/01/20 04:00:37;;;;;;;50.25;45.45;;;;;;;5.01;100.00;100142.28;5045446;28;20449;-82
2023/01/20 04:03:08;;;;;;;49.90;45.08;;;;;;;5.39;100.00;100141.31;5049710;28;20050;-82
2023/01/20 04:05:38;;;;;;;43.63;40.33;;;;;;;5.67;100.00;100136.13;5056731;28;20095;-82
2023/01/20 04:08:09;;;;;;;46.65;42.47;;;;;;;5.51;100.00;100132.75;5042500;28;20099;-82
2023/01/20 04:10:40;;;;;;;43.63;39.83;;;;;;;5.58;100.00;100129.34;5041496;28;20054;-82
2023/01/20 04:13:07;;;;;;;43.33;39.33;;;;;;;5.67;100.00;100133.50;5041733;28;20059;-82
2023/01/20 04:15:37;;;;;;;45.65;41.67;;;;;;;5.61;100.00;100121.88;5050001;28;20072;-82
2023/01/20 04:18:15;;;;;;;44.05;40.13;;;;;;;5.54;100.00;100133.34;5041156;28;20049;-81
2023/01/20 04:20:44;;;;;;;41.55;38.20;;;;;;;5.44;100.00;100142.38;5037034;28;20132;-82
2023/01/20 04:23:18;;;;;;;41.17;37.85;;;;;;;5.58;100.00;100151.25;5032808;28;20045;-82
2023/01/20 04:25:45;;;;;;;44.63;41.17;;;;;;;5.80;100.00;100143.34;5038071;28;20069;-82
2023/01/20 04:28:12;;;;;;;45.70;41.88;;;;;;;5.77;100.00;100133.19;5035395;28;20133;-81
2023/01/20 04:30:39;;;;;;;44.35;40.83;;;;;;;5.86;100.00;100137.31;5043653;28;20046;-82
2023/01/20 04:33:05;;;;;;;44.83;40.95;;;;;;;5.92;100.00;100132.09;5048915;28;20054;-81
2023/01/20 04:35:32;;;;;;;45.78;42.20;;;;;;;5.93;100.00;100127.66;5047645;28;20099;-82
2023/01/20 04:38:00;;;;;;;55.95;50.45;;;;;;;5.99;100.00;100128.72;5037738;28;20050;-82
2023/01/20 04:40:27;;;;;;;56.28;51.38;;;;;;;5.68;100.00;100122.75;5049689;28;20088;-82
2023/01/20 04:42:53;;;;;;;52.00;47.90;;;;;;;6.21;100.00;100116.34;5037674;28;20045;-82
2023/01/20 04:45:21;;;;;;;53.33;49.05;;;;;;;6.50;100.00;100121.41;5050995;28;20049;-79
2023/01/20 04:47:47;;;;;;;48.65;44.03;;;;;;;6.38;100.00;100131.69;5051369;28;20049;-82
2023/01/20 04:50:15;;;;;;;52.90;48.35;;;;;;;6.61;100.00;100123.50;5044600;28;20415;-82
2023/01/20 04:52:42;;;;;;;49.38;45.30;;;;;;;6.96;100.00;100128.78;5037255;28;20101;-83
2023/01/20 04:55:11;;;;;;;46.95;42.30;;;;;;;7.15;100.00;100123.78;5039829;28;20510;-82
2023/01/20 04:57:38;;;;;;;50.72;46.38;;;;;;;7.48;100.00;100129.16;5039358;28;20057;-82
2023/01/20 05:00:07;;;;;;;45.20;41.28;;;;;;;7.73;100.00;100142.63;5039467;28;20059;-82
2023/01/20 05:02:34;;;;;;;47.13;43.17;;;;;;;7.77;100.00;100138.53;5042125;28;20096;-82
2023/01/20 05:05:00;;;;;;;44.80;40.75;;;;;;;7.22;100.00;100133.31;4992967;28;20408;-82
2023/01/20 05:07:27;;;;;;;53.60;49.17;;;;;;;7.37;100.00;100138.47;5015817;28;20076;-82
2023/01/20 05:09:54;;;;;;;50.45;46.38;;;;;;;7.24;100.00;100141.06;5016428;28;20416;-82
2023/01/20 05:12:22;;;;;;;51.75;47.47;;;;;;;7.55;100.00;100138.72;5013669;28;20049;-82
2023/01/20 05:14:49;;;;;;;49.92;46.38;;;;;;;7.55;100.00;100143.19;5009833;28;20579;-82
2023/01/20 05:17:15;;;;;;;45.15;41.95;;;;;;;7.82;100.00;100143.25;5010824;28;20073;-82
2023/01/20 05:19:42;;;;;;;46.00;42.17;;;;;;;7.99;100.00;100139.19;5014590;28;20569;-82
2023/01/20 05:22:09;;;;;;;44.17;40.88;;;;;;;7.89;100.00;100141.41;5015974;28;20136;-81
2023/01/20 05:24:36;;;;;;;45.25;41.58;;;;;;;8.17;100.00;100147.34;5011397;28;20081;-82
2023/01/20 05:27:04;;;;;;;46.00;42.90;;;;;;;8.26;100.00;100145.31;5010358;28;20046;-82
2023/01/20 05:29:32;;;;;;;45.78;41.95;;;;;;;8.35;100.00;100151.16;5013694;28;20045;-82
2023/01/20 05:31:59;;;;;;;45.65;41.92;;;;;;;8.26;100.00;100135.53;5007827;28;20132;-82
2023/01/20 05:34:26;;;;;;;43.35;40.08;;;;;;;8.08;100.00;100134.50;5009042;28;20050;-82
2023/01/20 05:36:53;;;;;;;45.17;41.70;;;;;;;7.98;100.00;100134.91;5013751;28;20514;-82
2023/01/20 05:39:20;;;;;;;44.03;39.90;;;;;;;7.66;100.00;100120.66;5014044;28;20053;-82
2023/01/20 05:41:47;;;;;;;46.78;42.75;;;;;;;7.67;100.00;100114.34;5011291;28;20041;-82
2023/01/20 05:44:14;;;;;;;46.28;42.40;;;;;;;7.52;100.00;100107.41;5010162;28;20042;-82
2023/01/20 05:46:42;;;;;;;44.75;40.85;;;;;;;7.49;100.00;100110.44;5004657;28;20046;-82
2023/01/20 05:49:10;;;;;;;48.05;44.22;;;;;;;7.58;100.00;100109.22;5012926;28;20054;-82
2023/01/20 05:51:37;;;;;;;45.97;42.20;;;;;;;7.55;100.00;100111.47;5016358;28;20045;-82
2023/01/20 05:54:04;;;;;;;42.25;39.10;;;;;;;7.52;100.00;100120.59;5014637;28;20069;-82
2023/01/20 05:56:31;;;;;;;44.33;40.00;;;;;;;7.44;100.00;100127.91;5004476;28;20046;-82
2023/01/20 05:58:58;;;;;;;44.45;41.45;;;;;;;7.28;100.00;100132.53;5005605;28;20105;-82
2023/01/20 06:01:24;;;;;;;41.75;38.75;;;;;;;7.18;100.00;100136.56;5010844;28;20073;-82
2023/01/20 06:03:52;;;;;;;41.53;38.28;;;;;;;7.33;100.00;100145.16;5012370;28;20104;-82
2023/01/20 06:06:19;;;;;;;45.75;41.25;;;;;;;7.23;100.00;100145.53;5009872;28;20054;-82
2023/01/20 06:08:48;;;;;;;48.80;44.30;;;;;;;7.42;100.00;100148.44;5007604;28;20050;-83
2023/01/20 06:11:16;;;;;;;51.15;45.65;;;;;;;7.56;100.00;100156.22;5008503;28;20061;-82
2023/01/20 06:13:43;;;;;;;44.13;40.20;;;;;;;7.93;100.00;100156.69;5014807;28;20050;-83
2023/01/20 06:16:10;;;;;;;45.45;40.90;;;;;;;7.89;100.00;100147.50;5012730;28;20053;-82
2023/01/20 06:18:37;;;;;;;45.28;41.55;;;;;;;7.98;100.00;100148.94;5006555;28;20054;-82
2023/01/20 06:21:05;;;;;;;47.92;42.42;;;;;;;8.18;100.00;100145.50;5016597;28;20042;-83
2023/01/20 06:23:32;;;;;;;44.75;40.78;;;;;;;8.05;100.00;100146.31;5013167;28;20041;-82
2023/01/20 06:26:00;;;;;;;43.97;40.17;;;;;;;8.20;100.00;100136.34;5015189;28;20054;-83
2023/01/20 06:28:27;;;;;;;46.92;42.53;;;;;;;7.92;100.00;100135.72;5007236;28;20137;-83
2023/01/20 06:30:59;;;;;;;45.78;41.50;;;;;;;7.72;100.00;100141.00;5011313;28;20092;-82
2023/01/20 06:33:26;;;;;;;43.88;40.33;;;;;;;7.84;100.00;100138.53;5008903;28;20054;-82
2023/01/20 06:35:54;;;;;;;44.45;40.60;;;;;;;7.88;100.00;100137.94;5008925;28;20077;-83
2023/01/20 06:38:22;;;;;;;45.50;40.85;;;;;;;7.97;100.00;100141.22;5006468;28;20140;-83
2023/01/20 06:40:49;;;;;;;49.38;42.60;;;;;;;8.03;100.00;100132.47;5012394;28;20069;-83
2023/01/20 06:43:16;;;;;;;44.58;40.97;;;;;;;8.43;100.00;100117.41;5012900;28;20050;-82
2023/01/20 06:45:42;;;;;;;47.60;43.55;;;;;;;8.28;100.00;100116.78;5016698;28;20427;-82
2023/01/20 06:48:09;;;;;;;47.22;43.13;;;;;;;8.16;100.00;100119.22;5009372;28;20054;-82
2023/01/20 06:50:36;;;;;;;47.72;43.80;;;;;;;8.33;100.00;100124.13;5007845;28;20479;-83
2023/01/20 06:53:02;;;;;;;49.45;44.45;;;;;;;8.23;100.00;100113.97;5013086;28;20077;-82
2023/01/20 06:55:31;;;;;;;49.10;44.42;;;;;;;8.08;100.00;100110.69;5010275;28;20054;-82
2023/01/20 06:57:57;;;;;;;48.88;44.60;;;;;;;7.79;100.00;100136.53;5010207;28;20042;-82
2023/01/20 07:00:24;;;;;;;53.42;48.10;;;;;;;7.74;100.00;100155.63;5012088;28;20046;-82
2023/01/20 07:02:51;;;;;;;55.47;49.67;;;;;;;7.77;100.00;100139.34;5006315;28;21449;-82
2023/01/20 07:05:18;;;;;;;55.20;49.33;;;;;;;7.88;100.00;100137.94;5011068;28;20581;-82
2023/01/20 07:07:45;;;;;;;55.13;49.75;;;;;;;8.11;100.00;100123.50;5014316;28;20049;-82
2023/01/20 07:10:11;;;;;;;52.25;47.40;;;;;;;8.33;100.00;100119.63;5014006;28;20043;-82
2023/01/20 07:12:39;;;;;;;50.88;46.58;;;;;;;8.29;100.00;100133.47;5011953;28;20049;-82
2023/01/20 07:15:07;;;;;;;51.33;46.42;;;;;;;8.24;100.00;100131.44;5010243;28;20117;-82
2023/01/20 07:17:34;;;;;;;51.70;46.70;;;;;;;8.26;100.00;100118.84;5007572;28;20063;-82
2023/01/20 07:20:01;;;;;;;51.83;47.22;;;;;;;8.91;100.00;100122.38;5011213;28;20041;-82
2023/01/20 07:22:28;;;;;;;51.70;47.17;;;;;;;9.18;100.00;100124.91;5004804;28;20042;-82
2023/01/20 07:24:55;;;;;;;50.83;46.63;;;;;;;9.48;100.00;100127.81;5016720;28;20057;-82
2023/01/20 07:27:21;;;;;;;51.42;46.83;;;;;;;10.04;100.00;100128.84;5014263;28;20050;-82
2023/01/20 07:29:50;;;;;;;49.72;45.72;;;;;;;10.43;100.00;100138.34;5012675;28;20050;-83
2023/01/20 07:32:16;;;;;;;50.67;46.47;;;;;;;10.46;100.00;100123.81;5014880;28;20046;-82
2023/01/20 07:34:43;;;;;;;52.00;47.65;;;;;;;10.45;100.00;100111.59;5015717;28;20053;-83
2023/01/20 07:37:10;;;;;;;56.15;51.47;;;;;;;10.64;100.00;100104.44;5020003;28;20058;-82
2023/01/20 07:39:37;;;;;;;54.55;49.20;;;;;;;10.55;100.00;100099.41;5016220;28;20050;-83
2023/01/20 07:42:04;;;;;;;54.38;49.17;;;;;;;10.47;100.00;100099.72;5013263;28;20508;-82
2023/01/20 07:44:32;;;;;;;56.72;51.03;;;;;;;10.49;100.00;100100.31;5016757;28;20053;-83
2023/01/20 07:47:00;;;;;;;52.67;47.45;;;;;;;10.56;100.00;100102.91;5017974;28;20061;-83
2023/01/20 07:49:28;;;;;;;50.72;46.53;;;;;;;10.80;100.00;100100.38;5015939;28;20420;-83
2023/01/20 07:51:54;;;;;;;50.50;46.10;;;;;;;11.04;100.00;100099.47;5015202;28;20038;-82
2023/01/20 07:54:21;;;;;;;47.40;43.28;;;;;;;11.38;100.00;100105.19;5015676;28;20069;-83
2023/01/20 07:56:48;;;;;;;49.55;45.50;;;;;;;11.62;100.00;100090.91;5018657;28;20073;-83
2023/01/20 07:59:15;;;;;;;47.47;43.88;;;;;;;11.81;100.00;100088.97;5019739;28;20520;-83
2023/01/20 08:01:42;;;;;;;50.67;46.50;;;;;;;12.03;100.00;100080.47;5017452;28;20053;-83
2023/01/20 08:04:11;;;;;;;54.55;50.67;;;;;;;12.18;100.00;100088.81;5011938;28;20061;-83
2023/01/20 08:06:38;;;;;;;48.47;44.80;;;;;;;12.30;100.00;100096.81;5016632;28;20482;-83
2023/01/20 08:09:08;;;;;;;47.60;44.10;;;;;;;12.44;100.00;100086.72;5021093;28;20423;-83
2023/01/20 08:11:35;;;;;;;45.53;42.28;;;;;;;12.52;100.00;100089.00;5016268;28;20428;-83
2023/01/20 08:14:02;;;;;;;49.90;46.03;;;;;;;12.72;100.00;100094.78;5018035;28;20062;-82
2023/01/20 08:16:28;;;;;;;46.58;43.15;;;;;;;12.91;100.00;100102.63;5012040;28;20042;-83
2023/01/20 08:18:55;;;;;;;47.78;43.75;;;;;;;12.97;100.00;100110.47;5022544;28;20041;-82
2023/01/20 08:21:26;;;;;;;50.08;46.20;;;;;;;13.17;100.00;100109.28;5016110;28;20054;-82
2023/01/20 08:23:55;;;;;;;49.35;45.50;;;;;;;13.14;100.00;100099.06;5016682;28;20042;-83
2023/01/20 08:26:23;;;;;;;48.20;44.47;;;;;;;13.20;100.00;100103.47;5013628;28;20100;-83
2023/01/20 08:28:51;;;;;;;47.83;44.20;;;;;;;13.24;100.00;100117.94;5010409;28;20054;-83
2023/01/20 08:31:20;;;;;;;48.25;44.95;;;;;;;13.35;100.00;100103.78;5012838;28;20050;-83
2023/01/20 08:33:48;;;;;;;48.13;44.33;;;;;;;13.34;100.00;100088.00;5013541;28;20057;-84
2023/01/20 08:36:17;;;;;;;49.45;45.28;;;;;;;13.37;100.00;100074.19;5018335;28;20137;-83
2023/01/20 08:38:46;;;;;;;48.97;45.22;;;;;;;13.40;100.00;100087.03;5017616;28;20050;-83
2023/01/20 08:41:16;;;;;;;48.42;45.03;;;;;;;13.43;100.00;100078.56;5014463;28;20050;-83
2023/01/20 08:43:43;;;;;;;49.20;45.60;;;;;;;13.30;100.00;100066.34;5023006;28;20081;-83
2023/01/20 08:46:12;;;;;;;51.03;47.15;;;;;;;13.39;100.00;100074.75;5017949;28;20065;-82
2023/01/20 08:48:40;;;;;;;47.58;44.22;;;;;;;13.34;100.00;100080.00;5015752;28;20054;-83
2023/01/20 08:51:09;;;;;;;47.38;44.00;;;;;;;13.42;100.00;100072.41;5018473;28;20120;-82
2023/01/20 08:53:36;;;;;;;46.55;43.42;;;;;;;13.41;100.00;100078.00;5012283;28;20496;-83
2023/01/20 08:56:05;;;;;;;49.20;45.30;;;;;;;13.36;100.00;100073.38;5015839;28;20055;-82
2023/01/20 08:58:32;;;;;;;48.10;44.45;;;;;;;13.34;100.00;100064.00;5017567;28;20045;-82
2023/01/20 09:00:59;;;;;;;47.70;44.28;;;;;;;13.33;100.00;100060.53;5015258;28;20061;-83
2023/01/20 09:03:26;;;;;;;49.45;45.80;;;;;;;13.34;100.00;100037.31;5011215;28;20526;-83
2023/01/20 09:05:53;;;;;;;47.70;44.40;;;;;;;13.43;100.00;100033.22;5012748;28;20045;-83
2023/01/20 09:08:20;;;;;;;47.60;44.08;;;;;;;13.39;100.00;100054.22;5010238;28;20108;-83
2023/01/20 09:10:47;;;;;;;48.20;44.92;;;;;;;13.48;100.00;100067.97;5016637;28;20054;-83
2023/01/20 09:13:15;;;;;;;49.88;45.63;;;;;;;13.44;100.00;100056.19;5015901;28;20186;-83
2023/01/20 09:15:42;;;;;;;45.15;41.85;;;;;;;13.34;100.00;100048.00;5015505;28;20049;-83
2023/01/20 09:18:09;;;;;;;45.20;42.15;;;;;;;13.44;100.00;100042.84;5014226;28;20046;-83
2023/01/20 09:20:36;;;;;;;46.83;43.58;;;;;;;13.55;100.00;100027.81;5011146;28;20046;-83
2023/01/20 09:23:02;;;;;;;47.05;44.00;;;;;;;13.61;100.00;100024.16;5014142;28;20566;-83
2023/01/20 09:25:29;;;;;;;45.97;43.00;;;;;;;13.64;100.00;100015.69;5014049;28;20050;-83
2023/01/20 09:27:56;;;;;;;44.72;41.50;;;;;;;13.79;100.00;100009.78;5016023;28;20042;-83
2023/01/20 09:30:24;;;;;;;46.00;42.85;;;;;;;13.95;100.00;100012.44;5022951;28;20053;-83
2023/01/20 09:32:56;;;;;;;47.58;44.28;;;;;;;14.06;100.00;100004.56;5016450;28;20104;-83
2023/01/20 09:35:22;;;;;;;47.38;43.92;;;;;;;14.25;100.00;99984.53;5019420;28;20073;-82
2023/01/20 09:46:31;;;;;;;44.30;41.38;;;;;;;14.88;100.00;99958.25;5019542;28;20070;-83
2023/01/20 09:54:51;;;;;;;45.97;43.38;;;;;;;15.21;100.00;99951.06;5019803;28;20077;-83
2023/01/20 09:57:21;;;;;;;46.42;43.75;;;;;;;15.52;100.00;99955.63;5014874;28;20052;-83
2023/01/20 09:59:52;;;;;;;44.85;42.25;;;;;;;15.97;100.00;99959.66;5017999;28;20077;-83
2023/01/20 10:02:27;;;;;;;46.25;43.80;;;;;;;17.00;100.00;99955.47;5021354;28;20053;-83
2023/01/20 10:04:59;;;;;;;45.42;42.92;;;;;;;17.51;100.00;99954.66;5012958;28;20432;-83
2023/01/20 10:07:34;;;;;;;45.00;42.40;;;;;;;17.33;100.00;99948.75;5020468;28;20475;-83
2023/01/20 10:10:11;;;;;;;47.55;44.83;;;;;;;17.07;100.00;99944.50;5022571;28;20053;-82
2023/01/20 10:12:45;;;;;;;47.60;44.70;;;;;;;17.24;100.00;99936.97;5024126;28;20046;-83
2023/01/20 10:15:18;;;;;;;46.38;43.63;;;;;;;17.47;100.00;99943.66;5022557;28;20050;-83
2023/01/20 10:17:49;;;;;;;;;;;;;;;17.34;100.00;99939.66;5022061;28;20512;-83
2023/01/20 10:20:22;;;;;;;48.80;46.00;;;;;;;17.22;100.00;99933.75;5017387;28;19929;-83
2023/01/20 10:22:56;;;;;;;48.15;45.35;;;;;;;17.10;100.00;99936.72;5021242;28;20054;-83
2023/01/20 10:25:28;;;;;;;49.20;46.55;;;;;;;16.76;100.00;99941.75;5023978;28;20069;-82
2023/01/20 10:27:58;;;;;;;48.08;45.38;;;;;;;16.70;100.00;99924.84;5018454;28;20411;-83
2023/01/20 10:30:31;;;;;;;49.97;46.92;;;;;;;16.72;100.00;99922.69;5018846;28;20473;-83
2023/01/20 10:33:05;;;;;;;50.92;47.80;;;;;;;16.62;100.00;99919.19;5019418;28;20573;-83
2023/01/20 10:35:37;;;;;;;50.05;47.28;;;;;;;16.59;100.00;99911.69;5009755;28;20054;-83
2023/01/20 10:38:08;;;;;;;48.42;45.50;;;;;;;16.50;100.00;99908.69;5013163;28;20050;-83
2023/01/20 10:40:41;;;;;;;50.00;46.70;;;;;;;16.32;100.00;99903.84;5019997;28;20046;-82
2023/01/20 10:43:12;;;;;;;47.58;44.97;;;;;;;16.28;100.00;99903.56;5016812;28;20113;-83
2023/01/20 10:46:01;;;;;;;47.17;44.47;;;;;;;16.02;100.00;99916.84;5012115;28;20073;-83
2023/01/20 10:48:47;;;;;;;47.47;44.47;;;;;;;15.88;100.00;99904.19;5011383;28;20046;-82
2023/01/20 10:51:23;;;;;;;48.03;45.08;;;;;;;15.88;100.00;99898.81;5016987;28;20058;-83
2023/01/20 10:54:06;;;;;;;47.65;44.65;;;;;;;15.79;100.00;99903.88;5015264;28;20116;-83
2023/01/20 10:56:42;;;;;;;47.92;45.13;;;;;;;15.77;100.00;99888.06;5011243;28;20068;-83
2023/01/20 10:59:13;;;;;;;46.78;44.03;;;;;;;15.68;100.00;99899.53;5011215;28;20058;-85
2023/01/20 11:01:41;;;;;;;47.78;44.97;;;;;;;15.71;100.00;99901.69;5013613;28;20128;-83
2023/01/20 11:04:17;;;;;;;47.97;45.28;;;;;;;15.68;100.00;99903.00;5010086;28;20051;-83
2023/01/20 11:06:44;;;;;;;48.22;45.47;;;;;;;15.63;100.00;99899.47;5007988;28;20046;-83
2023/01/20 11:09:22;;;;;;;47.88;45.17;;;;;;;15.59;100.00;99888.47;5017816;28;20112;-83
2023/01/20 11:11:49;;;;;;;48.78;45.47;;;;;;;15.57;100.00;99890.59;5017673;28;20566;-83
2023/01/20 11:14:16;;;;;;;47.03;44.28;;;;;;;15.41;100.00;99900.41;5012911;28;20054;-83
2023/01/20 11:16:46;;;;;;;47.47;44.67;;;;;;;15.44;100.00;99889.19;5010006;28;20047;-83
2023/01/20 11:19:15;;;;;;;47.75;45.05;;;;;;;15.56;100.00;99892.47;5015783;28;20058;-83
2023/01/20 11:21:41;;;;;;;47.28;44.58;;;;;;;15.44;100.00;99878.50;5016912;28;20100;-83
2023/01/20 11:24:32;;;;;;;47.53;44.65;;;;;;;15.60;100.00;99875.91;5016298;28;20116;-83
2023/01/20 11:27:03;;;;;;;48.15;45.55;;;;;;;15.50;100.00;99863.28;5006016;28;20058;-83
2023/01/20 11:29:35;;;;;;;48.25;45.22;;;;;;;15.48;100.00;99868.06;5011943;28;20496;-83
2023/01/20 11:32:03;;;;;;;46.65;43.97;;;;;;;15.50;100.00;99871.31;5012690;28;20053;-83